Time;durP1;ratioP1;P1;durP2;ratioP2;P2;SDS_P1;SDS_P2;PMS_P1;PMS_P2;Temp;Humidity;BMP_temperature;BMP_pressure;BME280_temperature;BME280_humidity;BME280_pressure;Samples;Min_cycle;Max_cycle;Signal;HPM_P1;HPM_P2
2022/08/01 00:02:01;;;;;;;;;1.33;1.33;;;;;;;;5100448;27;45378;-74
2022/08/01 00:04:27;;;;;;;;;4.67;2.33;;;;;;;;5098791;27;45434;-75
2022/08/01 00:06:52;;;;;;;;;5.67;3.00;;;;;;;;5099964;27;47447;-76
2022/08/01 00:09:17;;;;;;;;;4.33;3.00;;;;;;;;5100231;27;45252;-77
2022/08/01 00:11:42;;;;;;;;;4.67;3.00;;;;;;;;5100402;27;45268;-75
2022/08/01 00:14:09;;;;;;;;;1.33;1.33;;;;;;;;5100448;27;45363;-76
2022/08/01 00:16:34;;;;;;;;;6.00;3.00;;;;;;;;5099937;27;46965;-76
2022/08/01 00:19:00;;;;;;;;;6.33;4.00;;;;;;;;5099967;27;45448;-75
2022/08/01 00:21:25;;;;;;;;;3.00;3.00;;;;;;;;5100231;27;45320;-76
2022/08/01 00:23:50;;;;;;;;;6.67;4.00;;;;;;;;5100346;27;45460;-76
2022/08/01 00:26:16;;;;;;;;;4.67;3.00;;;;;;;;5099939;27;45618;-76
2022/08/01 00:28:41;;;;;;;;;4.67;3.00;;;;;;;;5100137;27;46028;-76
2022/08/01 00:31:06;;;;;;;;;1.33;1.33;;;;;;;;5099979;27;45470;-76
2022/08/01 00:33:31;;;;;;;;;2.00;2.00;;;;;;;;5100176;27;45396;-76
2022/08/01 00:35:57;;;;;;;;;2.00;2.00;;;;;;;;5099475;27;45364;-75
2022/08/01 00:38:22;;;;;;;;;5.33;2.33;;;;;;;;5099821;27;45348;-75
2022/08/01 00:40:47;;;;;;;;;3.00;3.00;;;;;;;;5100023;27;45245;-76
2022/08/01 00:43:13;;;;;;;;;3.00;3.00;;;;;;;;5100052;27;45165;-76
2022/08/01 00:45:38;;;;;;;;;3.00;3.00;;;;;;;;5099667;27;45424;-75
2022/08/01 00:48:03;;;;;;;;;3.00;2.67;;;;;;;;5099625;27;45406;-76
2022/08/01 00:50:28;;;;;;;;;3.00;3.00;;;;;;;;5099774;27;45355;-75
2022/08/01 00:52:54;;;;;;;;;3.67;3.33;;;;;;;;5099941;27;45300;-75
2022/08/01 00:55:20;;;;;;;;;3.67;3.67;;;;;;;;5099425;27;45332;-76
2022/08/01 00:57:46;;;;;;;;;6.33;3.33;;;;;;;;5099284;27;45273;-76
2022/08/01 01:00:12;;;;;;;;;6.67;3.00;;;;;;;;5099701;27;45281;-76
2022/08/01 01:02:37;;;;;;;;;6.00;4.33;;;;;;;;5099504;27;45325;-76
2022/08/01 01:05:02;;;;;;;;;3.67;3.00;;;;;;;;5099049;27;47225;-75
2022/08/01 01:07:45;;;;;;;;;5.33;4.00;;;;;;;;5099157;27;45235;-75
2022/08/01 01:10:13;;;;;;;;;4.67;3.33;;;;;;;;5099380;27;45438;-75
2022/08/01 01:13:05;;;;;;;;;4.33;3.00;;;;;;;;5099576;27;45354;-76
2022/08/01 01:15:39;;;;;;;;;2.00;2.00;;;;;;;;5076206;28;45609;-76
2022/08/01 01:18:28;;;;;;;;;3.00;3.00;;;;;;;;5076452;28;45396;-76
2022/08/01 01:21:08;;;;;;;;;2.67;1.33;;;;;;;;5016397;28;45402;-75
2022/08/01 01:23:39;;;;;;;;;4.00;2.33;;;;;;;;5016360;28;45504;-76
2022/08/01 01:26:07;;;;;;;;;4.00;4.00;;;;;;;;5015907;28;45445;-75
2022/08/01 01:28:51;;;;;;;;;4.67;4.67;;;;;;;;5015872;28;45291;-76
2022/08/01 01:31:18;;;;;;;;;3.33;2.00;;;;;;;;5016243;28;45913;-76
2022/08/01 01:33:43;;;;;;;;;4.33;3.00;;;;;;;;5016159;28;45219;-76
2022/08/01 01:36:09;;;;;;;;;4.00;3.00;;;;;;;;5015933;28;46325;-76
2022/08/01 01:38:43;;;;;;;;;5.33;5.00;;;;;;;;5016084;28;45589;-76
2022/08/01 01:41:09;;;;;;;;;4.67;4.33;;;;;;;;5016208;28;45394;-76
2022/08/01 01:43:35;;;;;;;;;6.00;2.67;;;;;;;;5015965;28;45245;-76
2022/08/01 01:46:02;;;;;;;;;5.00;3.00;;;;;;;;5015602;28;45354;-76
2022/08/01 01:48:28;;;;;;;;;5.00;2.67;;;;;;;;5013943;28;45438;-77
2022/08/01 01:50:54;;;;;;;;;5.33;4.00;;;;;;;;5015943;28;45535;-75
2022/08/01 01:53:21;;;;;;;;;2.33;2.33;;;;;;;;5052698;28;45302;-76
2022/08/01 01:55:48;;;;;;;;;4.67;3.67;;;;;;;;5055540;28;46564;-76
2022/08/01 01:58:14;;;;;;;;;4.67;3.67;;;;;;;;5082954;27;45268;-75
2022/08/01 02:00:42;;;;;;;;;5.67;4.00;;;;;;;;5098676;27;45341;-75
2022/08/01 02:03:08;;;;;;;;;9.33;6.33;;;;;;;;5098640;27;45438;-77
2022/08/01 02:05:35;;;;;;;;;6.00;4.33;;;;;;;;5098017;27;45581;-76
2022/08/01 02:08:03;;;;;;;;;5.00;5.00;;;;;;;;5098219;27;45292;-77
2022/08/01 02:10:30;;;;;;;;;7.00;5.00;;;;;;;;5098588;27;45240;-76
2022/08/01 02:12:57;;;;;;;;;7.00;4.00;;;;;;;;5098702;27;45211;-76
2022/08/01 02:15:23;;;;;;;;;5.33;5.33;;;;;;;;5098114;27;46696;-75
2022/08/01 02:17:52;;;;;;;;;5.67;4.67;;;;;;;;5098298;27;45360;-75
2022/08/01 02:20:17;;;;;;;;;9.00;5.33;;;;;;;;5098142;27;45341;-76
2022/08/01 02:22:46;;;;;;;;;6.33;6.33;;;;;;;;5098404;27;45316;-75
2022/08/01 02:25:20;;;;;;;;;7.67;5.00;;;;;;;;5098255;27;46690;-76
2022/08/01 02:27:50;;;;;;;;;7.00;4.00;;;;;;;;5097938;27;45293;-76
2022/08/01 02:30:16;;;;;;;;;8.33;4.00;;;;;;;;5098159;27;45257;-76
2022/08/01 02:32:47;;;;;;;;;5.67;5.00;;;;;;;;5098674;27;45385;-76
2022/08/01 02:35:32;;;;;;;;;4.67;4.00;;;;;;;;5098001;27;46589;-76
2022/08/01 02:37:59;;;;;;;;;12.00;6.33;;;;;;;;5097594;27;45407;-76
2022/08/01 02:40:27;;;;;;;;;10.67;7.67;;;;;;;;5098022;27;45394;-76
2022/08/01 02:42:54;;;;;;;;;9.33;6.67;;;;;;;;5097982;27;45228;-76
2022/08/01 02:45:22;;;;;;;;;9.00;4.67;;;;;;;;5097799;27;45260;-76
2022/08/01 02:47:48;;;;;;;;;6.00;6.00;;;;;;;;5097925;27;45344;-76
2022/08/01 02:50:14;;;;;;;;;6.67;4.67;;;;;;;;5097855;27;45331;-76
2022/08/01 02:52:41;;;;;;;;;6.00;5.67;;;;;;;;5098241;27;45431;-76
2022/08/01 02:55:08;;;;;;;;;6.00;6.00;;;;;;;;5097672;27;46241;-77
2022/08/01 02:57:33;;;;;;;;;7.00;5.67;;;;;;;;5097832;27;45203;-75
2022/08/01 02:59:59;;;;;;;;;7.00;6.33;;;;;;;;5100611;27;45362;-75
2022/08/01 03:02:25;;;;;;;;;9.33;6.33;;;;;;;;5101709;27;45328;-76
2022/08/01 03:04:52;;;;;;;;;12.33;9.00;;;;;;;;5100797;27;46741;-75
2022/08/01 03:07:18;;;;;;;;;10.67;7.00;;;;;;;;5101136;27;45558;-75
2022/08/01 03:09:45;;;;;;;;;7.00;7.00;;;;;;;;5101385;27;45416;-76
2022/08/01 03:12:22;;;;;;;;;12.00;6.00;;;;;;;;5101351;27;45319;-76
2022/08/01 03:14:50;;;;;;;;;7.00;7.00;;;;;;;;5100969;27;47465;-76
2022/08/01 03:17:16;;;;;;;;;9.33;6.67;;;;;;;;5100921;27;45371;-76
2022/08/01 03:19:44;;;;;;;;;19.33;15.00;;;;;;;;5100937;27;45415;-76
2022/08/01 03:22:11;;;;;;;;;11.67;9.00;;;;;;;;5101536;27;45342;-75
2022/08/01 03:24:38;;;;;;;;;10.33;8.67;;;;;;;;5100944;27;46281;-76
2022/08/01 03:27:03;;;;;;;;;10.33;7.33;;;;;;;;5100863;27;45217;-76
2022/08/01 03:29:29;;;;;;;;;8.33;8.00;;;;;;;;5100936;27;45300;-75
2022/08/01 03:31:55;;;;;;;;;13.00;10.33;;;;;;;;5099727;27;45532;-76
2022/08/01 03:34:21;;;;;;;;;9.00;9.00;;;;;;;;5100700;27;46082;-76
2022/08/01 03:36:55;;;;;;;;;11.00;9.00;;;;;;;;5100700;27;45418;-75
2022/08/01 03:39:22;;;;;;;;;12.33;8.33;;;;;;;;5100850;27;45359;-76
2022/08/01 03:41:52;;;;;;;;;15.00;12.33;;;;;;;;5101078;27;45409;-76
2022/08/01 03:44:20;;;;;;;;;17.00;16.00;;;;;;;;5100451;27;46256;-76
2022/08/01 03:46:47;;;;;;;;;15.33;12.33;;;;;;;;5100358;27;45267;-75
2022/08/01 03:49:18;;;;;;;;;18.67;13.67;;;;;;;;5100672;27;45514;-76
2022/08/01 03:51:44;;;;;;;;;17.33;16.67;;;;;;;;5100819;27;45330;-76
2022/08/01 03:54:10;;;;;;;;;16.67;12.67;;;;;;;;5100198;27;46284;-75
2022/08/01 03:56:36;;;;;;;;;18.33;15.33;;;;;;;;5100454;27;45375;-77
2022/08/01 03:59:03;;;;;;;;;16.67;15.00;;;;;;;;5100448;27;45248;-77
2022/08/01 04:01:29;;;;;;;;;18.00;15.67;;;;;;;;5100712;27;45363;-77
2022/08/01 04:03:54;;;;;;;;;18.33;15.67;;;;;;;;5099790;27;47388;-76
2022/08/01 04:06:20;;;;;;;;;19.67;16.67;;;;;;;;5100136;27;45440;-77
2022/08/01 04:08:55;;;;;;;;;25.67;16.00;;;;;;;;5100317;27;45314;-76
2022/08/01 04:11:20;;;;;;;;;17.00;12.67;;;;;;;;5099799;27;45494;-76
2022/08/01 04:13:45;;;;;;;;;19.33;13.00;;;;;;;;5098680;27;45375;-76
2022/08/01 04:16:11;;;;;;;;;17.00;14.33;;;;;;;;5100209;27;45383;-76
2022/08/01 04:18:36;;;;;;;;;12.33;11.67;;;;;;;;5100119;27;45217;-77
2022/08/01 04:21:01;;;;;;;;;15.67;12.67;;;;;;;;5100422;27;45300;-77
2022/08/01 04:23:27;;;;;;;;;17.33;15.67;;;;;;;;5100124;27;46324;-77
2022/08/01 04:25:54;;;;;;;;;15.67;13.67;;;;;;;;5100136;27;45352;-77
2022/08/01 04:28:20;;;;;;;;;17.67;15.00;;;;;;;;5099990;27;45274;-77
2022/08/01 04:30:46;;;;;;;;;16.67;11.00;;;;;;;;5099982;27;45384;-77
2022/08/01 04:33:16;;;;;;;;;15.33;14.00;;;;;;;;5099812;27;45359;-77
2022/08/01 04:35:42;;;;;;;;;13.33;13.33;;;;;;;;5099652;27;45398;-77
2022/08/01 04:38:09;;;;;;;;;16.00;13.33;;;;;;;;5099896;27;45358;-77
2022/08/01 04:40:35;;;;;;;;;16.00;14.67;;;;;;;;5100173;27;45178;-77
2022/08/01 04:43:01;;;;;;;;;18.00;15.67;;;;;;;;5099406;27;45273;-78
2022/08/01 04:45:27;;;;;;;;;16.67;12.67;;;;;;;;5099816;27;45315;-77
2022/08/01 04:47:52;;;;;;;;;15.67;12.00;;;;;;;;5099705;27;45301;-78
2022/08/01 04:50:20;;;;;;;;;19.00;14.67;;;;;;;;5099832;27;45489;-77
2022/08/01 04:52:45;;;;;;;;;20.33;16.67;;;;;;;;5099606;27;45629;-77
2022/08/01 04:55:10;;;;;;;;;16.00;10.00;;;;;;;;5099229;27;45411;-77
2022/08/01 04:57:37;;;;;;;;;23.33;15.33;;;;;;;;5099605;27;45237;-77
2022/08/01 05:00:02;;;;;;;;;15.33;13.00;;;;;;;;5099733;27;45477;-77
2022/08/01 05:02:28;;;;;;;;;22.67;15.67;;;;;;;;5099156;27;46571;-77
2022/08/01 05:04:55;;;;;;;;;19.33;14.33;;;;;;;;5098955;27;45327;-78
2022/08/01 05:07:20;;;;;;;;;19.33;15.33;;;;;;;;5099309;27;45235;-77
2022/08/01 05:09:48;;;;;;;;;19.00;15.00;;;;;;;;5099667;27;45425;-78
2022/08/01 05:12:13;;;;;;;;;16.00;12.33;;;;;;;;5099276;27;45465;-78
2022/08/01 05:14:39;;;;;;;;;18.00;15.00;;;;;;;;5099211;27;45530;-77
2022/08/01 05:17:06;;;;;;;;;16.00;13.67;;;;;;;;5099197;27;45338;-78
2022/08/01 05:19:34;;;;;;;;;15.00;14.33;;;;;;;;5099341;27;45287;-77
2022/08/01 05:22:00;;;;;;;;;17.33;16.00;;;;;;;;5098317;27;46515;-77
2022/08/01 05:24:29;;;;;;;;;15.67;13.33;;;;;;;;5098646;27;45372;-77
2022/08/01 05:26:57;;;;;;;;;19.33;15.33;;;;;;;;5099068;27;45382;-77
2022/08/01 05:29:23;;;;;;;;;19.00;16.33;;;;;;;;5099304;27;45198;-77
2022/08/01 05:31:48;;;;;;;;;16.33;12.67;;;;;;;;5098708;27;46204;-77
2022/08/01 05:34:14;;;;;;;;;16.00;15.00;;;;;;;;5098796;27;45204;-78
2022/08/01 05:36:39;;;;;;;;;16.67;14.67;;;;;;;;5099106;27;45252;-77
2022/08/01 05:39:06;;;;;;;;;13.00;13.00;;;;;;;;5099170;27;45410;-77
2022/08/01 05:41:31;;;;;;;;;59.33;45.33;;;;;;;;5098943;27;46468;-77
2022/08/01 05:43:56;;;;;;;;;16.33;13.33;;;;;;;;5098523;27;45220;-77
2022/08/01 05:46:21;;;;;;;;;15.33;11.67;;;;;;;;5098861;27;45280;-77
2022/08/01 05:48:47;;;;;;;;;14.00;12.00;;;;;;;;5099008;27;45564;-76
2022/08/01 05:51:12;;;;;;;;;16.00;11.00;;;;;;;;5098407;27;45300;-76
2022/08/01 05:53:37;;;;;;;;;14.67;11.00;;;;;;;;5098590;27;45453;-76
2022/08/01 05:56:02;;;;;;;;;13.33;11.67;;;;;;;;5098667;27;45347;-77
2022/08/01 05:58:28;;;;;;;;;17.33;13.33;;;;;;;;5098703;27;45612;-77
2022/08/01 06:00:53;;;;;;;;;13.33;12.33;;;;;;;;5098495;27;47060;-77
2022/08/01 06:03:18;;;;;;;;;15.00;13.00;;;;;;;;5098538;27;45375;-77
2022/08/01 06:05:44;;;;;;;;;16.67;14.67;;;;;;;;5098213;27;45342;-76
2022/08/01 06:08:09;;;;;;;;;21.67;18.33;;;;;;;;5098513;27;45338;-77
2022/08/01 06:10:34;;;;;;;;;25.00;17.00;;;;;;;;5098322;27;45659;-77
2022/08/01 06:13:02;;;;;;;;;18.33;16.33;;;;;;;;5098473;27;45372;-77
2022/08/01 06:15:28;;;;;;;;;13.00;11.33;;;;;;;;5098410;27;45256;-77
2022/08/01 06:17:53;;;;;;;;;19.67;15.67;;;;;;;;5098563;27;45275;-77
2022/08/01 06:20:18;;;;;;;;;14.00;13.67;;;;;;;;5097885;27;45364;-77
2022/08/01 06:22:43;;;;;;;;;21.33;15.00;;;;;;;;5098204;27;45301;-77
2022/08/01 06:25:09;;;;;;;;;23.67;16.33;;;;;;;;5098372;27;45415;-76
2022/08/01 06:27:35;;;;;;;;;23.67;17.33;;;;;;;;5098490;27;45220;-77
2022/08/01 06:30:00;;;;;;;;;14.33;12.67;;;;;;;;5098158;27;45607;-76
2022/08/01 06:32:26;;;;;;;;;17.33;17.33;;;;;;;;5097971;27;45299;-77
2022/08/01 06:34:51;;;;;;;;;25.33;22.33;;;;;;;;5100394;27;45473;-77
2022/08/01 06:37:16;;;;;;;;;13.00;13.00;;;;;;;;5101978;27;45417;-77
2022/08/01 06:39:41;;;;;;;;;20.33;15.00;;;;;;;;5101631;27;46662;-77
2022/08/01 06:42:07;;;;;;;;;16.33;14.67;;;;;;;;5101744;27;45232;-76
2022/08/01 06:44:32;;;;;;;;;16.00;15.33;;;;;;;;5101604;27;45370;-76
2022/08/01 06:46:58;;;;;;;;;10.00;8.00;;;;;;;;5101620;27;45309;-76
2022/08/01 06:49:23;;;;;;;;;15.00;12.33;;;;;;;;5101403;27;46308;-77
2022/08/01 06:51:48;;;;;;;;;13.00;13.00;;;;;;;;5101399;27;45448;-76
2022/08/01 06:54:14;;;;;;;;;11.33;9.67;;;;;;;;5101583;27;45395;-76
2022/08/01 06:56:39;;;;;;;;;11.33;8.67;;;;;;;;5101747;27;45326;-75
2022/08/01 06:59:04;;;;;;;;;7.67;7.67;;;;;;;;5101225;27;46204;-75
2022/08/01 07:01:29;;;;;;;;;11.33;10.00;;;;;;;;5101428;27;45393;-76
2022/08/01 07:03:55;;;;;;;;;15.00;13.33;;;;;;;;5101162;27;45371;-75
2022/08/01 07:06:21;;;;;;;;;11.33;9.67;;;;;;;;5101410;27;45499;-75
2022/08/01 07:08:46;;;;;;;;;12.00;10.00;;;;;;;;5101227;27;46079;-76
2022/08/01 07:11:11;;;;;;;;;11.00;7.00;;;;;;;;5101239;27;45370;-76
2022/08/01 07:13:37;;;;;;;;;9.67;8.33;;;;;;;;5101287;27;45326;-76
2022/08/01 07:16:02;;;;;;;;;11.33;8.33;;;;;;;;5101548;27;45405;-76
2022/08/01 07:18:27;;;;;;;;;9.00;9.00;;;;;;;;5101085;27;46294;-76
2022/08/01 07:20:52;;;;;;;;;11.67;10.00;;;;;;;;5101018;27;45251;-75
2022/08/01 07:23:18;;;;;;;;;8.00;7.67;;;;;;;;5101278;27;45336;-76
2022/08/01 07:25:43;;;;;;;;;8.00;6.33;;;;;;;;5101396;27;45153;-76
2022/08/01 07:28:08;;;;;;;;;8.33;6.33;;;;;;;;5100787;27;45447;-76
2022/08/01 07:30:34;;;;;;;;;15.67;10.00;;;;;;;;5100824;27;45328;-76
2022/08/01 07:33:00;;;;;;;;;7.00;7.00;;;;;;;;5101128;27;45276;-76
2022/08/01 07:35:25;;;;;;;;;6.67;6.67;;;;;;;;5101025;27;45201;-76
2022/08/01 07:37:50;;;;;;;;;6.00;6.00;;;;;;;;5100623;27;45468;-75
2022/08/01 07:40:17;;;;;;;;;6.33;6.33;;;;;;;;5100793;27;45224;-76
2022/08/01 07:42:43;;;;;;;;;6.25;5.25;;;;;;;;5100723;27;45317;-76
2022/08/01 07:45:09;;;;;;;;;8.67;7.00;;;;;;;;5100078;27;45403;-76
2022/08/01 07:47:34;;;;;;;;;10.00;7.00;;;;;;;;5100179;27;47625;-76
2022/08/01 07:50:00;;;;;;;;;7.67;7.33;;;;;;;;5100475;27;45376;-75
2022/08/01 07:52:26;;;;;;;;;7.33;5.67;;;;;;;;5100734;27;45347;-75
2022/08/01 07:54:51;;;;;;;;;8.67;7.33;;;;;;;;5100631;27;45466;-76
2022/08/01 07:57:17;;;;;;;;;9.67;8.33;;;;;;;;5100413;27;45501;-76
2022/08/01 07:59:42;;;;;;;;;8.67;8.33;;;;;;;;5100668;27;45469;-75
2022/08/01 08:02:07;;;;;;;;;9.00;6.67;;;;;;;;5100493;27;45247;-75
2022/08/01 08:04:32;;;;;;;;;11.33;11.00;;;;;;;;5100381;27;45175;-76
2022/08/01 08:06:57;;;;;;;;;8.00;8.00;;;;;;;;5100005;27;45973;-76
2022/08/01 08:09:23;;;;;;;;;10.33;9.67;;;;;;;;5100179;27;45505;-76
2022/08/01 08:11:48;;;;;;;;;9.33;8.67;;;;;;;;5100585;27;45302;-76
2022/08/01 08:14:14;;;;;;;;;4.00;4.00;;;;;;;;5099172;27;45571;-76
2022/08/01 08:16:39;;;;;;;;;8.33;8.33;;;;;;;;5100102;27;46579;-76
2022/08/01 08:19:04;;;;;;;;;6.33;6.33;;;;;;;;5100288;27;45260;-76
2022/08/01 08:21:30;;;;;;;;;6.00;6.00;;;;;;;;5100122;27;45296;-76
2022/08/01 08:26:38;;;;;;;;;5.67;5.67;;;;;;;;5099851;27;45654;-76
2022/08/01 08:29:04;;;;;;;;;6.00;6.00;;;;;;;;5099991;27;45273;-76
2022/08/01 08:31:29;;;;;;;;;8.00;4.67;;;;;;;;5100150;27;45335;-76
2022/08/01 08:33:54;;;;;;;;;6.00;4.00;;;;;;;;5100182;27;45218;-75
2022/08/01 08:36:20;;;;;;;;;8.67;8.33;;;;;;;;5099689;27;45446;-76
2022/08/01 08:38:45;;;;;;;;;4.00;4.00;;;;;;;;5099787;27;45159;-76
2022/08/01 08:41:11;;;;;;;;;6.00;6.00;;;;;;;;5099969;27;45162;-76
2022/08/01 08:43:36;;;;;;;;;5.00;5.00;;;;;;;;5100130;27;45350;-76
2022/08/01 08:46:02;;;;;;;;;5.00;5.00;;;;;;;;5099584;27;46020;-76
2022/08/01 08:48:28;;;;;;;;;9.33;8.00;;;;;;;;5099437;27;45235;-76
2022/08/01 08:50:53;;;;;;;;;5.00;5.00;;;;;;;;5099585;27;45379;-76
2022/08/01 08:53:18;;;;;;;;;4.67;4.33;;;;;;;;5099874;27;45332;-76
2022/08/01 08:55:44;;;;;;;;;7.00;7.00;;;;;;;;5099414;27;45338;-76
2022/08/01 08:58:12;;;;;;;;;6.00;6.00;;;;;;;;5099209;27;45474;-77
2022/08/01 09:00:38;;;;;;;;;4.67;4.67;;;;;;;;5099591;27;45386;-75
2022/08/01 09:03:03;;;;;;;;;5.00;4.67;;;;;;;;5099667;27;45453;-76
2022/08/01 09:05:29;;;;;;;;;6.67;5.67;;;;;;;;5098921;27;46216;-76
2022/08/01 09:07:54;;;;;;;;;4.00;4.00;;;;;;;;5099113;27;45220;-76
2022/08/01 09:10:19;;;;;;;;;4.00;4.00;;;;;;;;5099500;27;45208;-75
2022/08/01 09:13:04;;;;;;;;;4.33;4.33;;;;;;;;5099449;27;45466;-76
2022/08/01 09:15:39;;;;;;;;;4.00;4.00;;;;;;;;5099017;27;46549;-78
2022/08/01 09:18:04;;;;;;;;;6.00;6.00;;;;;;;;5099285;27;45224;-75
2022/08/01 09:20:29;;;;;;;;;5.00;5.00;;;;;;;;5099106;27;45444;-76
2022/08/01 09:22:54;;;;;;;;;5.67;5.00;;;;;;;;5099370;27;45233;-76
2022/08/01 09:25:20;;;;;;;;;6.00;4.00;;;;;;;;5099040;27;45384;-76
2022/08/01 09:27:45;;;;;;;;;3.00;3.00;;;;;;;;5098922;27;45465;-75
2022/08/01 09:30:12;;;;;;;;;3.00;3.00;;;;;;;;5099208;27;45289;-75
2022/08/01 09:32:57;;;;;;;;;8.00;5.00;;;;;;;;5099298;27;45461;-75
2022/08/01 09:35:27;;;;;;;;;5.33;5.33;;;;;;;;5098668;27;45491;-75
2022/08/01 09:38:10;;;;;;;;;4.00;4.00;;;;;;;;5098822;27;45361;-75
2022/08/01 09:40:43;;;;;;;;;8.00;7.00;;;;;;;;5099063;27;45418;-76
2022/08/01 09:43:12;;;;;;;;;4.33;4.33;;;;;;;;5099006;27;45412;-76
2022/08/01 09:45:37;;;;;;;;;5.00;5.00;;;;;;;;5098683;27;46511;-75
2022/08/01 09:48:12;;;;;;;;;4.00;4.00;;;;;;;;5098501;27;45420;-75
2022/08/01 09:50:41;;;;;;;;;4.00;4.00;;;;;;;;5098834;27;45485;-75
2022/08/01 09:53:06;;;;;;;;;4.00;3.67;;;;;;;;5098926;27;45273;-75
2022/08/01 09:55:32;;;;;;;;;3.00;3.00;;;;;;;;5098569;27;46234;-75
2022/08/01 09:58:00;;;;;;;;;8.33;8.33;;;;;;;;5098518;27;45453;-75
2022/08/01 10:00:26;;;;;;;;;2.67;2.67;;;;;;;;5098743;27;45287;-75
2022/08/01 10:02:51;;;;;;;;;4.33;3.00;;;;;;;;5098917;27;45354;-76
2022/08/01 10:05:17;;;;;;;;;4.00;3.67;;;;;;;;5098115;27;45506;-75
2022/08/01 10:07:55;;;;;;;;;3.67;3.67;;;;;;;;5098249;27;45428;-75
2022/08/01 10:10:20;;;;;;;;;4.00;3.00;;;;;;;;5098023;27;45303;-74
2022/08/01 10:12:45;;;;;;;;;3.67;3.00;;;;;;;;5098632;27;45462;-75
2022/08/01 10:15:11;;;;;;;;;4.00;2.00;;;;;;;;5098423;27;46501;-75
2022/08/01 10:17:38;;;;;;;;;3.33;3.33;;;;;;;;5098265;27;45416;-75
2022/08/01 10:20:04;;;;;;;;;5.00;4.00;;;;;;;;5098427;27;45315;-75
2022/08/01 10:22:30;;;;;;;;;10.33;10.33;;;;;;;;5098421;27;45455;-75
2022/08/01 10:24:57;;;;;;;;;4.00;4.00;;;;;;;;5098197;27;46648;-75
2022/08/01 10:27:23;;;;;;;;;3.00;3.00;;;;;;;;5098018;27;45298;-74
2022/08/01 10:30:03;;;;;;;;;4.00;4.00;;;;;;;;5098362;27;45545;-76
2022/08/01 10:32:29;;;;;;;;;3.33;3.00;;;;;;;;5098322;27;45319;-75
2022/08/01 10:34:55;;;;;;;;;4.00;3.67;;;;;;;;5098009;27;45709;-75
2022/08/01 10:37:20;;;;;;;;;2.33;2.33;;;;;;;;5097985;27;45321;-74
2022/08/01 10:39:45;;;;;;;;;4.00;4.00;;;;;;;;5098011;27;45481;-74
2022/08/01 10:42:11;;;;;;;;;4.00;3.00;;;;;;;;5098208;27;45314;-75
2022/08/01 10:44:37;;;;;;;;;6.33;5.67;;;;;;;;5097736;27;46184;-76
2022/08/01 10:47:12;;;;;;;;;4.00;4.00;;;;;;;;5097735;27;45346;-76
2022/08/01 10:49:57;;;;;;;;;6.00;4.00;;;;;;;;5098125;27;45362;-76
2022/08/01 10:52:22;;;;;;;;;5.00;4.33;;;;;;;;5097637;27;45432;-75
2022/08/01 10:54:48;;;;;;;;;4.33;4.33;;;;;;;;5097648;27;46172;-75
2022/08/01 10:57:13;;;;;;;;;6.00;6.00;;;;;;;;5097607;27;45350;-75
2022/08/01 10:59:51;;;;;;;;;4.67;4.33;;;;;;;;5097977;27;45482;-75
2022/08/01 11:02:31;;;;;;;;;8.33;5.33;;;;;;;;5098078;27;45417;-76
2022/08/01 11:05:11;;;;;;;;;3.67;0.67;;;;;;;;5097489;27;46431;-75
2022/08/01 11:07:39;;;;;;;;;4.00;4.00;;;;;;;;5097246;27;45212;-75
2022/08/01 11:10:10;;;;;;;;;6.33;4.33;;;;;;;;5097777;27;45206;-75
2022/08/01 11:12:39;;;;;;;;;5.00;5.00;;;;;;;;5097876;27;45425;-75
2022/08/01 11:15:05;;;;;;;;;4.67;4.67;;;;;;;;5097350;27;46477;-76
2022/08/01 11:17:34;;;;;;;;;4.33;4.33;;;;;;;;5096113;27;45363;-75
2022/08/01 11:20:07;;;;;;;;;4.00;4.00;;;;;;;;5098590;27;45347;-75
2022/08/01 11:22:52;;;;;;;;;5.67;3.67;;;;;;;;5101119;27;45418;-75
2022/08/01 11:25:18;;;;;;;;;5.33;5.33;;;;;;;;5100768;27;45593;-75
2022/08/01 11:27:43;;;;;;;;;11.00;10.67;;;;;;;;5100893;27;45683;-76
2022/08/01 11:30:08;;;;;;;;;5.00;5.00;;;;;;;;5101129;27;45421;-74
2022/08/01 11:32:45;;;;;;;;;4.67;4.67;;;;;;;;5101101;27;45340;-74
2022/08/01 11:35:10;;;;;;;;;4.00;4.00;;;;;;;;5100785;27;45595;-75
2022/08/01 11:37:35;;;;;;;;;4.67;4.67;;;;;;;;5100715;27;45407;-75
2022/08/01 11:40:21;;;;;;;;;8.00;5.33;;;;;;;;5100992;27;45283;-75
2022/08/01 11:42:47;;;;;;;;;6.00;6.00;;;;;;;;5100961;27;45245;-75
2022/08/01 11:45:12;;;;;;;;;10.00;9.33;;;;;;;;5100410;27;45453;-76
2022/08/01 11:47:43;;;;;;;;;5.00;5.00;;;;;;;;5100328;27;45351;-76
2022/08/01 11:50:29;;;;;;;;;6.33;5.00;;;;;;;;5100841;27;45465;-75
2022/08/01 11:53:02;;;;;;;;;12.00;12.00;;;;;;;;5100627;27;45515;-76
2022/08/01 11:55:28;;;;;;;;;5.00;5.00;;;;;;;;5100267;27;45328;-76
2022/08/01 11:58:07;;;;;;;;;5.00;5.00;;;;;;;;5100485;27;45228;-76
2022/08/01 12:00:33;;;;;;;;;16.67;15.67;;;;;;;;5100687;27;45290;-76
2022/08/01 12:03:02;;;;;;;;;1.00;1.00;;;;;;;;5100670;27;45477;-77
2022/08/01 12:05:28;;;;;;;;;7.00;6.00;;;;;;;;5100141;27;46278;-76
2022/08/01 12:07:55;;;;;;;;;6.00;6.00;;;;;;;;5100091;27;45232;-76
2022/08/01 12:10:22;;;;;;;;;7.00;6.67;;;;;;;;5100457;27;45240;-77
2022/08/01 12:12:56;;;;;;;;;7.33;5.67;;;;;;;;5100661;27;45187;-76
2022/08/01 12:15:23;;;;;;;;;6.67;5.00;;;;;;;;5100151;27;46076;-75
2022/08/01 12:17:59;;;;;;;;;6.33;5.67;;;;;;;;5100149;27;45395;-75
2022/08/01 12:20:25;;;;;;;;;5.33;4.00;;;;;;;;5100238;27;45444;-75
2022/08/01 12:22:54;;;;;;;;;8.00;8.00;;;;;;;;5100309;27;45505;-74
2022/08/01 12:25:19;;;;;;;;;7.00;5.00;;;;;;;;5099933;27;46107;-75
2022/08/01 12:27:45;;;;;;;;;7.00;5.00;;;;;;;;5100024;27;45329;-75
2022/08/01 12:30:12;;;;;;;;;6.00;6.00;;;;;;;;5100117;27;45196;-74
2022/08/01 12:32:38;;;;;;;;;3.67;3.67;;;;;;;;5099451;27;45461;-75
2022/08/01 12:35:07;;;;;;;;;4.33;4.00;;;;;;;;5099845;27;45382;-76
2022/08/01 12:37:40;;;;;;;;;4.33;4.33;;;;;;;;5099680;27;45366;-76
2022/08/01 12:40:14;;;;;;;;;5.00;5.00;;;;;;;;5099919;27;45274;-76
2022/08/01 12:42:41;;;;;;;;;7.00;4.00;;;;;;;;5100096;27;45412;-75
2022/08/01 12:45:10;;;;;;;;;6.00;5.00;;;;;;;;5099588;27;46038;-76
2022/08/01 12:47:37;;;;;;;;;5.00;5.00;;;;;;;;5099472;27;45365;-76
2022/08/01 12:50:03;;;;;;;;;6.00;4.67;;;;;;;;5099821;27;45336;-76
2022/08/01 12:52:30;;;;;;;;;3.67;3.67;;;;;;;;5099718;27;45432;-76
2022/08/01 12:54:59;;;;;;;;;4.67;4.67;;;;;;;;5099203;27;46039;-75
2022/08/01 12:57:25;;;;;;;;;5.00;5.00;;;;;;;;5099625;27;45240;-76
2022/08/01 12:59:52;;;;;;;;;4.33;4.00;;;;;;;;5099554;27;45240;-75
2022/08/01 13:02:18;;;;;;;;;5.33;4.00;;;;;;;;5099882;27;45241;-76
2022/08/01 13:04:51;;;;;;;;;4.00;4.00;;;;;;;;5099034;27;47316;-76
2022/08/01 13:07:16;;;;;;;;;4.33;4.33;;;;;;;;5099043;27;45354;-75
2022/08/01 13:09:51;;;;;;;;;4.00;4.00;;;;;;;;5099592;27;45197;-75
2022/08/01 13:12:16;;;;;;;;;3.00;3.00;;;;;;;;5099654;27;45321;-75
2022/08/01 13:14:41;;;;;;;;;5.00;5.00;;;;;;;;5099067;27;45414;-76
2022/08/01 13:17:07;;;;;;;;;4.00;4.00;;;;;;;;5099482;27;45224;-76
2022/08/01 13:19:43;;;;;;;;;5.00;5.00;;;;;;;;5099249;27;45266;-76
2022/08/01 13:22:08;;;;;;;;;6.00;6.00;;;;;;;;5099307;27;45429;-76
2022/08/01 13:24:33;;;;;;;;;4.00;4.00;;;;;;;;5099015;27;45502;-76
2022/08/01 13:26:59;;;;;;;;;3.00;3.00;;;;;;;;5099069;27;45439;-76
2022/08/01 13:29:33;;;;;;;;;4.00;4.00;;;;;;;;5099339;27;45358;-75
2022/08/01 13:31:59;;;;;;;;;5.67;5.67;;;;;;;;5099017;27;45387;-75
2022/08/01 13:34:34;;;;;;;;;5.00;3.00;;;;;;;;5098863;27;47128;-76
2022/08/01 13:37:01;;;;;;;;;2.33;2.33;;;;;;;;5098812;27;45439;-75
2022/08/01 13:39:42;;;;;;;;;4.67;4.67;;;;;;;;5098998;27;45399;-75
2022/08/01 13:42:11;;;;;;;;;5.00;5.00;;;;;;;;5099009;27;45442;-75
2022/08/01 13:44:36;;;;;;;;;3.00;3.00;;;;;;;;5097463;27;46540;-75
2022/08/01 13:47:02;;;;;;;;;5.00;5.00;;;;;;;;5098728;27;45388;-76
2022/08/01 13:49:28;;;;;;;;;4.00;4.00;;;;;;;;5099037;27;45525;-76
2022/08/01 13:51:54;;;;;;;;;3.00;3.00;;;;;;;;5098717;27;45385;-76
2022/08/01 13:54:20;;;;;;;;;4.67;3.00;;;;;;;;5098298;27;45639;-76
2022/08/01 13:56:45;;;;;;;;;7.33;5.00;;;;;;;;5098585;27;45304;-75
2022/08/01 13:59:11;;;;;;;;;4.67;4.67;;;;;;;;5097484;27;45235;-76
2022/08/01 14:01:36;;;;;;;;;7.33;4.67;;;;;;;;5098957;27;45413;-76
2022/08/01 14:04:02;;;;;;;;;4.00;4.00;;;;;;;;5098062;27;45426;-76
2022/08/01 14:06:27;;;;;;;;;4.00;4.00;;;;;;;;5098486;27;45373;-75
2022/08/01 14:08:53;;;;;;;;;3.00;3.00;;;;;;;;5098299;27;45469;-74
2022/08/01 14:11:18;;;;;;;;;5.67;3.67;;;;;;;;5098702;27;45221;-75
2022/08/01 14:13:44;;;;;;;;;4.00;4.00;;;;;;;;5098322;27;45396;-76
2022/08/01 14:16:09;;;;;;;;;5.00;4.00;;;;;;;;5098318;27;45336;-76
2022/08/01 14:18:34;;;;;;;;;5.00;5.00;;;;;;;;5098583;27;45375;-76
2022/08/01 14:20:59;;;;;;;;;5.33;4.33;;;;;;;;5098417;27;45393;-76
2022/08/01 14:23:25;;;;;;;;;5.67;5.67;;;;;;;;5098109;27;47073;-76
2022/08/01 14:25:50;;;;;;;;;4.00;3.00;;;;;;;;5098209;27;45243;-77
2022/08/01 14:28:15;;;;;;;;;3.33;3.33;;;;;;;;5098246;27;45432;-75
2022/08/01 14:30:43;;;;;;;;;3.00;3.00;;;;;;;;5098359;27;45386;-76
2022/08/01 14:33:09;;;;;;;;;5.00;5.00;;;;;;;;5098070;27;46574;-77
2022/08/01 14:35:34;;;;;;;;;3.67;3.67;;;;;;;;5098060;27;45300;-77
2022/08/01 14:37:59;;;;;;;;;13.33;11.67;;;;;;;;5098082;27;45348;-77
2022/08/01 14:40:25;;;;;;;;;3.00;2.00;;;;;;;;5098392;27;45198;-76